sensor_id;sensor_type;location;lat;lon;timestamp;temperature;humidity
9808;DHT22;4943;52.550;13.462;2023-05-10T00:01:13;15.60;84.20
9808;DHT22;4943;52.550;13.462;2023-05-10T00:03:42;15.60;84.40
9808;DHT22;4943;52.550;13.462;2023-05-10T00:08:38;15.60;84.60
9808;DHT22;4943;52.550;13.462;2023-05-10T00:11:06;15.50;84.80
9808;DHT22;4943;52.550;13.462;2023-05-10T00:13:34;15.50;84.90
9808;DHT22;4943;52.550;13.462;2023-05-10T00:16:02;15.50;84.90
9808;DHT22;4943;52.550;13.462;2023-05-10T00:18:31;15.40;85.00
9808;DHT22;4943;52.550;13.462;2023-05-10T00:21:00;15.40;85.10
9808;DHT22;4943;52.550;13.462;2023-05-10T00:23:28;15.40;85.10
9808;DHT22;4943;52.550;13.462;2023-05-10T00:25:56;15.40;85.20
9808;DHT22;4943;52.550;13.462;2023-05-10T00:28:24;15.30;85.30
9808;DHT22;4943;52.550;13.462;2023-05-10T00:30:52;15.30;85.50
9808;DHT22;4943;52.550;13.462;2023-05-10T00:33:20;15.30;85.50
9808;DHT22;4943;52.550;13.462;2023-05-10T00:35:48;15.20;86.10
9808;DHT22;4943;52.550;13.462;2023-05-10T00:38:17;15.20;86.00
9808;DHT22;4943;52.550;13.462;2023-05-10T00:40:45;15.10;85.90
9808;DHT22;4943;52.550;13.462;2023-05-10T00:43:13;15.10;86.20
9808;DHT22;4943;52.550;13.462;2023-05-10T00:45:41;15.10;86.20
9808;DHT22;4943;52.550;13.462;2023-05-10T00:48:09;15.00;86.20
9808;DHT22;4943;52.550;13.462;2023-05-10T00:50:38;15.00;86.30
9808;DHT22;4943;52.550;13.462;2023-05-10T00:53:07;15.00;86.30
9808;DHT22;4943;52.550;13.462;2023-05-10T00:55:37;15.00;86.70
9808;DHT22;4943;52.550;13.462;2023-05-10T00:58:05;14.90;86.90
9808;DHT22;4943;52.550;13.462;2023-05-10T01:00:33;14.90;86.90
9808;DHT22;4943;52.550;13.462;2023-05-10T01:03:02;14.90;87.60
9808;DHT22;4943;52.550;13.462;2023-05-10T01:05:31;14.90;87.10
9808;DHT22;4943;52.550;13.462;2023-05-10T01:07:59;14.80;87.00
9808;DHT22;4943;52.550;13.462;2023-05-10T01:10:27;14.80;87.60
9808;DHT22;4943;52.550;13.462;2023-05-10T01:12:56;14.80;87.60
9808;DHT22;4943;52.550;13.462;2023-05-10T01:15:24;14.80;87.50
9808;DHT22;4943;52.550;13.462;2023-05-10T01:17:53;14.70;87.40
9808;DHT22;4943;52.550;13.462;2023-05-10T01:20:21;14.70;87.60
9808;DHT22;4943;52.550;13.462;2023-05-10T01:23:10;14.70;87.80
9808;DHT22;4943;52.550;13.462;2023-05-10T01:29:14;14.70;87.90
9808;DHT22;4943;52.550;13.462;2023-05-10T01:32:14;14.60;88.00
9808;DHT22;4943;52.550;13.462;2023-05-10T01:34:50;14.60;88.10
9808;DHT22;4943;52.550;13.462;2023-05-10T01:37:27;14.50;88.30
9808;DHT22;4943;52.550;13.462;2023-05-10T01:40:01;14.50;88.30
9808;DHT22;4943;52.550;13.462;2023-05-10T01:42:38;14.50;88.30
9808;DHT22;4943;52.550;13.462;2023-05-10T01:45:14;14.50;88.80
9808;DHT22;4943;52.550;13.462;2023-05-10T01:47:51;14.40;88.80
9808;DHT22;4943;52.550;13.462;2023-05-10T01:50:24;14.40;89.40
9808;DHT22;4943;52.550;13.462;2023-05-10T01:52:57;14.40;89.20
9808;DHT22;4943;52.550;13.462;2023-05-10T01:55:29;14.40;89.30
9808;DHT22;4943;52.550;13.462;2023-05-10T01:58:03;14.40;89.10
9808;DHT22;4943;52.550;13.462;2023-05-10T02:00:33;14.30;89.20
9808;DHT22;4943;52.550;13.462;2023-05-10T02:03:05;14.30;89.40
9808;DHT22;4943;52.550;13.462;2023-05-10T02:05:36;14.30;89.30
9808;DHT22;4943;52.550;13.462;2023-05-10T02:08:06;14.30;89.30
9808;DHT22;4943;52.550;13.462;2023-05-10T02:10:34;14.20;89.50
9808;DHT22;4943;52.550;13.462;2023-05-10T02:13:03;14.20;89.50
9808;DHT22;4943;52.550;13.462;2023-05-10T02:15:33;14.20;89.80
9808;DHT22;4943;52.550;13.462;2023-05-10T02:18:04;14.20;90.00
9808;DHT22;4943;52.550;13.462;2023-05-10T02:20:33;14.10;89.80
9808;DHT22;4943;52.550;13.462;2023-05-10T02:23:03;14.10;89.80
9808;DHT22;4943;52.550;13.462;2023-05-10T02:25:32;14.10;89.90
9808;DHT22;4943;52.550;13.462;2023-05-10T02:28:02;14.10;89.90
9808;DHT22;4943;52.550;13.462;2023-05-10T02:30:32;14.10;90.00
9808;DHT22;4943;52.550;13.462;2023-05-10T02:33:04;14.00;90.00
9808;DHT22;4943;52.550;13.462;2023-05-10T02:35:34;14.00;90.00
9808;DHT22;4943;52.550;13.462;2023-05-10T02:38:02;14.00;90.00
9808;DHT22;4943;52.550;13.462;2023-05-10T02:40:32;14.00;90.00
9808;DHT22;4943;52.550;13.462;2023-05-10T02:43:01;14.00;90.10
9808;DHT22;4943;52.550;13.462;2023-05-10T02:45:31;14.00;90.10
9808;DHT22;4943;52.550;13.462;2023-05-10T02:48:00;13.90;90.40
9808;DHT22;4943;52.550;13.462;2023-05-10T02:50:30;13.90;90.20
9808;DHT22;4943;52.550;13.462;2023-05-10T02:53:01;13.90;90.20
9808;DHT22;4943;52.550;13.462;2023-05-10T02:55:35;13.90;90.30
9808;DHT22;4943;52.550;13.462;2023-05-10T02:58:04;13.80;90.30
9808;DHT22;4943;52.550;13.462;2023-05-10T03:00:32;13.80;90.20
9808;DHT22;4943;52.550;13.462;2023-05-10T03:03:00;13.80;90.40
9808;DHT22;4943;52.550;13.462;2023-05-10T03:05:30;13.80;90.40
9808;DHT22;4943;52.550;13.462;2023-05-10T03:07:59;13.80;90.40
9808;DHT22;4943;52.550;13.462;2023-05-10T03:10:31;13.70;90.50
9808;DHT22;4943;52.550;13.462;2023-05-10T03:13:07;13.70;90.50
9808;DHT22;4943;52.550;13.462;2023-05-10T03:15:42;13.70;90.50
9808;DHT22;4943;52.550;13.462;2023-05-10T03:18:16;13.70;90.60
9808;DHT22;4943;52.550;13.462;2023-05-10T03:20:48;13.70;90.50
9808;DHT22;4943;52.550;13.462;2023-05-10T03:23:22;13.70;90.60
9808;DHT22;4943;52.550;13.462;2023-05-10T03:25:54;13.70;90.60
9808;DHT22;4943;52.550;13.462;2023-05-10T03:28:25;13.60;90.70
9808;DHT22;4943;52.550;13.462;2023-05-10T03:30:55;13.70;90.70
9808;DHT22;4943;52.550;13.462;2023-05-10T03:33:23;13.60;90.70
9808;DHT22;4943;52.550;13.462;2023-05-10T03:35:53;13.60;90.70
9808;DHT22;4943;52.550;13.462;2023-05-10T03:38:21;13.70;90.70
9808;DHT22;4943;52.550;13.462;2023-05-10T03:40:49;13.70;90.70
9808;DHT22;4943;52.550;13.462;2023-05-10T03:43:17;13.60;90.70
9808;DHT22;4943;52.550;13.462;2023-05-10T03:45:45;13.60;90.70
9808;DHT22;4943;52.550;13.462;2023-05-10T03:48:13;13.60;90.80
9808;DHT22;4943;52.550;13.462;2023-05-10T03:50:41;13.70;90.80
9808;DHT22;4943;52.550;13.462;2023-05-10T03:53:10;13.70;90.90
9808;DHT22;4943;52.550;13.462;2023-05-10T03:55:38;13.70;90.90
9808;DHT22;4943;52.550;13.462;2023-05-10T03:58:10;13.70;90.90
9808;DHT22;4943;52.550;13.462;2023-05-10T04:00:38;13.70;91.20
9808;DHT22;4943;52.550;13.462;2023-05-10T04:03:10;13.70;90.90
9808;DHT22;4943;52.550;13.462;2023-05-10T04:05:38;13.80;90.90
9808;DHT22;4943;52.550;13.462;2023-05-10T04:08:06;13.80;91.30
9808;DHT22;4943;52.550;13.462;2023-05-10T04:10:36;13.80;90.90
9808;DHT22;4943;52.550;13.462;2023-05-10T04:13:04;13.80;90.90
9808;DHT22;4943;52.550;13.462;2023-05-10T04:15:32;13.90;90.90
9808;DHT22;4943;52.550;13.462;2023-05-10T04:18:00;13.90;91.00
9808;DHT22;4943;52.550;13.462;2023-05-10T04:20:28;13.90;91.00
9808;DHT22;4943;52.550;13.462;2023-05-10T04:22:56;13.90;91.00
9808;DHT22;4943;52.550;13.462;2023-05-10T04:25:24;13.90;91.00
9808;DHT22;4943;52.550;13.462;2023-05-10T04:27:54;14.00;91.00
9808;DHT22;4943;52.550;13.462;2023-05-10T04:30:22;14.00;91.00
9808;DHT22;4943;52.550;13.462;2023-05-10T04:32:50;14.00;91.10
9808;DHT22;4943;52.550;13.462;2023-05-10T04:35:18;14.00;91.00
9808;DHT22;4943;52.550;13.462;2023-05-10T04:37:46;14.10;91.40
9808;DHT22;4943;52.550;13.462;2023-05-10T04:40:14;14.10;91.20
9808;DHT22;4943;52.550;13.462;2023-05-10T04:42:43;14.10;91.20
9808;DHT22;4943;52.550;13.462;2023-05-10T04:45:13;14.10;91.10
9808;DHT22;4943;52.550;13.462;2023-05-10T04:47:42;14.20;91.20
9808;DHT22;4943;52.550;13.462;2023-05-10T04:50:10;14.20;91.10
9808;DHT22;4943;52.550;13.462;2023-05-10T04:52:38;14.20;91.10
9808;DHT22;4943;52.550;13.462;2023-05-10T04:55:07;14.30;91.10
9808;DHT22;4943;52.550;13.462;2023-05-10T04:57:36;14.30;91.20
9808;DHT22;4943;52.550;13.462;2023-05-10T05:00:06;14.30;91.20
9808;DHT22;4943;52.550;13.462;2023-05-10T05:02:35;14.40;91.20
9808;DHT22;4943;52.550;13.462;2023-05-10T05:05:04;14.40;91.20
9808;DHT22;4943;52.550;13.462;2023-05-10T05:07:32;14.40;91.20
9808;DHT22;4943;52.550;13.462;2023-05-10T05:10:00;14.50;91.20
9808;DHT22;4943;52.550;13.462;2023-05-10T05:12:28;14.50;91.30
9808;DHT22;4943;52.550;13.462;2023-05-10T05:14:57;14.60;91.30
9808;DHT22;4943;52.550;13.462;2023-05-10T05:17:25;14.60;91.30
9808;DHT22;4943;52.550;13.462;2023-05-10T05:19:54;14.60;91.30
9808;DHT22;4943;52.550;13.462;2023-05-10T05:22:22;14.70;91.30
9808;DHT22;4943;52.550;13.462;2023-05-10T05:24:54;14.70;91.30
9808;DHT22;4943;52.550;13.462;2023-05-10T05:27:22;14.70;91.30
9808;DHT22;4943;52.550;13.462;2023-05-10T05:29:52;14.80;91.40
9808;DHT22;4943;52.550;13.462;2023-05-10T05:32:20;14.80;91.30
9808;DHT22;4943;52.550;13.462;2023-05-10T05:34:49;14.90;91.40
9808;DHT22;4943;52.550;13.462;2023-05-10T05:37:19;14.90;91.40
9808;DHT22;4943;52.550;13.462;2023-05-10T05:39:48;14.90;91.40
9808;DHT22;4943;52.550;13.462;2023-05-10T05:42:16;15.00;91.40
9808;DHT22;4943;52.550;13.462;2023-05-10T05:44:45;15.00;91.40
9808;DHT22;4943;52.550;13.462;2023-05-10T05:47:13;15.10;91.40
9808;DHT22;4943;52.550;13.462;2023-05-10T05:49:41;15.10;91.40
9808;DHT22;4943;52.550;13.462;2023-05-10T05:52:12;15.20;91.50
9808;DHT22;4943;52.550;13.462;2023-05-10T05:54:41;15.20;91.50
9808;DHT22;4943;52.550;13.462;2023-05-10T05:57:09;15.30;91.50
9808;DHT22;4943;52.550;13.462;2023-05-10T05:59:37;15.30;91.50
9808;DHT22;4943;52.550;13.462;2023-05-10T06:02:08;15.30;91.50
9808;DHT22;4943;52.550;13.462;2023-05-10T06:04:36;15.40;91.70
9808;DHT22;4943;52.550;13.462;2023-05-10T06:07:05;15.50;91.50
9808;DHT22;4943;52.550;13.462;2023-05-10T06:09:33;15.50;91.80
9808;DHT22;4943;52.550;13.462;2023-05-10T06:12:02;15.60;91.50
9808;DHT22;4943;52.550;13.462;2023-05-10T06:14:30;15.60;91.50
9808;DHT22;4943;52.550;13.462;2023-05-10T06:16:58;15.60;91.50
9808;DHT22;4943;52.550;13.462;2023-05-10T06:19:26;15.70;91.60
9808;DHT22;4943;52.550;13.462;2023-05-10T06:21:54;15.80;91.60
9808;DHT22;4943;52.550;13.462;2023-05-10T06:24:22;15.80;91.60
9808;DHT22;4943;52.550;13.462;2023-05-10T06:26:50;15.90;91.60
9808;DHT22;4943;52.550;13.462;2023-05-10T06:29:20;15.90;91.70
9808;DHT22;4943;52.550;13.462;2023-05-10T06:31:48;15.90;91.60
9808;DHT22;4943;52.550;13.462;2023-05-10T06:34:16;16.00;91.60
9808;DHT22;4943;52.550;13.462;2023-05-10T06:36:44;16.00;91.60
9808;DHT22;4943;52.550;13.462;2023-05-10T06:39:12;16.10;91.60
9808;DHT22;4943;52.550;13.462;2023-05-10T06:41:40;16.20;91.70
9808;DHT22;4943;52.550;13.462;2023-05-10T06:44:08;16.20;91.70
9808;DHT22;4943;52.550;13.462;2023-05-10T06:46:38;16.20;91.60
9808;DHT22;4943;52.550;13.462;2023-05-10T06:49:06;16.30;91.70
9808;DHT22;4943;52.550;13.462;2023-05-10T06:51:34;16.30;91.60
9808;DHT22;4943;52.550;13.462;2023-05-10T06:54:02;16.40;91.70
9808;DHT22;4943;52.550;13.462;2023-05-10T06:56:30;16.40;91.70
9808;DHT22;4943;52.550;13.462;2023-05-10T06:58:58;16.50;91.60
9808;DHT22;4943;52.550;13.462;2023-05-10T07:01:26;16.50;91.60
9808;DHT22;4943;52.550;13.462;2023-05-10T07:03:56;16.50;91.60
9808;DHT22;4943;52.550;13.462;2023-05-10T07:06:24;16.60;91.60
9808;DHT22;4943;52.550;13.462;2023-05-10T07:08:59;16.60;91.60
9808;DHT22;4943;52.550;13.462;2023-05-10T07:11:27;16.70;91.60
9808;DHT22;4943;52.550;13.462;2023-05-10T07:13:55;16.70;91.60
9808;DHT22;4943;52.550;13.462;2023-05-10T07:16:23;16.70;91.60
9808;DHT22;4943;52.550;13.462;2023-05-10T07:18:51;16.80;91.60
9808;DHT22;4943;52.550;13.462;2023-05-10T07:21:21;16.80;91.60
9808;DHT22;4943;52.550;13.462;2023-05-10T07:23:50;16.90;91.70
9808;DHT22;4943;52.550;13.462;2023-05-10T07:26:19;16.90;91.70
9808;DHT22;4943;52.550;13.462;2023-05-10T07:28:47;16.90;91.70
9808;DHT22;4943;52.550;13.462;2023-05-10T07:31:15;17.00;91.60
9808;DHT22;4943;52.550;13.462;2023-05-10T07:33:44;17.00;91.90
9808;DHT22;4943;52.550;13.462;2023-05-10T07:36:12;17.10;91.60
9808;DHT22;4943;52.550;13.462;2023-05-10T07:38:41;17.10;91.60
9808;DHT22;4943;52.550;13.462;2023-05-10T07:43:38;17.20;91.60
9808;DHT22;4943;52.550;13.462;2023-05-10T07:46:06;17.20;91.60
9808;DHT22;4943;52.550;13.462;2023-05-10T07:48:36;17.30;91.50
9808;DHT22;4943;52.550;13.462;2023-05-10T07:51:05;17.30;91.50
9808;DHT22;4943;52.550;13.462;2023-05-10T07:53:36;17.30;91.50
9808;DHT22;4943;52.550;13.462;2023-05-10T07:56:21;17.40;91.50
9808;DHT22;4943;52.550;13.462;2023-05-10T07:58:49;17.50;91.60
9808;DHT22;4943;52.550;13.462;2023-05-10T08:01:18;17.50;91.60
9808;DHT22;4943;52.550;13.462;2023-05-10T08:03:46;17.50;91.50
9808;DHT22;4943;52.550;13.462;2023-05-10T08:06:16;17.60;91.50
9808;DHT22;4943;52.550;13.462;2023-05-10T08:08:46;17.60;91.90
9808;DHT22;4943;52.550;13.462;2023-05-10T08:11:16;17.70;91.50
9808;DHT22;4943;52.550;13.462;2023-05-10T08:13:46;17.70;91.80
9808;DHT22;4943;52.550;13.462;2023-05-10T08:16:15;17.70;91.50
9808;DHT22;4943;52.550;13.462;2023-05-10T08:18:44;17.80;91.60
9808;DHT22;4943;52.550;13.462;2023-05-10T08:21:13;17.80;91.60
9808;DHT22;4943;52.550;13.462;2023-05-10T08:23:41;17.90;91.60
9808;DHT22;4943;52.550;13.462;2023-05-10T08:26:10;17.90;91.60
9808;DHT22;4943;52.550;13.462;2023-05-10T08:28:38;18.00;91.60
9808;DHT22;4943;52.550;13.462;2023-05-10T08:31:08;18.00;91.50
9808;DHT22;4943;52.550;13.462;2023-05-10T08:33:36;18.10;91.90
9808;DHT22;4943;52.550;13.462;2023-05-10T08:36:04;18.10;91.50
9808;DHT22;4943;52.550;13.462;2023-05-10T08:38:32;18.20;91.50
9808;DHT22;4943;52.550;13.462;2023-05-10T08:41:02;18.20;91.50
9808;DHT22;4943;52.550;13.462;2023-05-10T08:43:31;18.30;91.50
9808;DHT22;4943;52.550;13.462;2023-05-10T08:46:00;18.30;91.40
9808;DHT22;4943;52.550;13.462;2023-05-10T08:48:33;18.40;91.40
9808;DHT22;4943;52.550;13.462;2023-05-10T08:51:03;18.40;91.40
9808;DHT22;4943;52.550;13.462;2023-05-10T08:53:33;18.50;91.30
9808;DHT22;4943;52.550;13.462;2023-05-10T08:56:03;18.50;91.30
9808;DHT22;4943;52.550;13.462;2023-05-10T08:58:32;18.50;91.30
9808;DHT22;4943;52.550;13.462;2023-05-10T09:01:01;18.60;91.70
9808;DHT22;4943;52.550;13.462;2023-05-10T09:03:31;18.60;91.40
9808;DHT22;4943;52.550;13.462;2023-05-10T09:05:59;18.70;91.40
9808;DHT22;4943;52.550;13.462;2023-05-10T09:08:27;18.70;91.40
9808;DHT22;4943;52.550;13.462;2023-05-10T09:10:55;18.80;91.30
9808;DHT22;4943;52.550;13.462;2023-05-10T09:13:24;18.80;91.20
9808;DHT22;4943;52.550;13.462;2023-05-10T09:15:53;18.90;91.20
9808;DHT22;4943;52.550;13.462;2023-05-10T09:18:21;19.00;91.30
9808;DHT22;4943;52.550;13.462;2023-05-10T09:20:52;19.00;91.30
9808;DHT22;4943;52.550;13.462;2023-05-10T09:23:20;19.00;91.20
9808;DHT22;4943;52.550;13.462;2023-05-10T09:26:01;19.10;91.20
9808;DHT22;4943;52.550;13.462;2023-05-10T09:28:34;19.10;91.20
9808;DHT22;4943;52.550;13.462;2023-05-10T09:31:17;19.10;91.20
9808;DHT22;4943;52.550;13.462;2023-05-10T09:33:45;19.20;91.20
9808;DHT22;4943;52.550;13.462;2023-05-10T09:36:15;19.20;91.20
9808;DHT22;4943;52.550;13.462;2023-05-10T09:38:47;19.30;91.20
9808;DHT22;4943;52.550;13.462;2023-05-10T09:41:17;19.30;91.00
9808;DHT22;4943;52.550;13.462;2023-05-10T09:43:45;19.30;91.00
9808;DHT22;4943;52.550;13.462;2023-05-10T09:46:14;19.40;91.10
9808;DHT22;4943;52.550;13.462;2023-05-10T09:48:44;19.40;90.90
9808;DHT22;4943;52.550;13.462;2023-05-10T09:51:20;19.50;91.00
9808;DHT22;4943;52.550;13.462;2023-05-10T09:53:49;19.50;90.90
9808;DHT22;4943;52.550;13.462;2023-05-10T09:56:36;19.50;90.90
9808;DHT22;4943;52.550;13.462;2023-05-10T09:59:07;19.60;91.00
9808;DHT22;4943;52.550;13.462;2023-05-10T10:01:36;19.70;91.00
9808;DHT22;4943;52.550;13.462;2023-05-10T10:04:05;19.80;91.00
9808;DHT22;4943;52.550;13.462;2023-05-10T10:06:38;19.80;90.90
9808;DHT22;4943;52.550;13.462;2023-05-10T10:09:07;19.90;90.70
9808;DHT22;4943;52.550;13.462;2023-05-10T10:11:36;19.90;90.70
9808;DHT22;4943;52.550;13.462;2023-05-10T10:14:05;19.90;90.70
9808;DHT22;4943;52.550;13.462;2023-05-10T10:16:33;20.00;90.70
9808;DHT22;4943;52.550;13.462;2023-05-10T10:19:02;20.00;90.80
9808;DHT22;4943;52.550;13.462;2023-05-10T10:21:30;20.00;90.80
9808;DHT22;4943;52.550;13.462;2023-05-10T10:24:00;20.10;90.80
9808;DHT22;4943;52.550;13.462;2023-05-10T10:26:33;20.20;90.70
9808;DHT22;4943;52.550;13.462;2023-05-10T10:29:12;20.20;90.40
9808;DHT22;4943;52.550;13.462;2023-05-10T10:31:47;20.30;90.50
9808;DHT22;4943;52.550;13.462;2023-05-10T10:34:25;20.30;90.50
9808;DHT22;4943;52.550;13.462;2023-05-10T10:36:55;20.40;90.60
9808;DHT22;4943;52.550;13.462;2023-05-10T10:39:25;20.40;90.50
9808;DHT22;4943;52.550;13.462;2023-05-10T10:41:55;20.40;90.30
9808;DHT22;4943;52.550;13.462;2023-05-10T10:44:34;20.50;90.20
9808;DHT22;4943;52.550;13.462;2023-05-10T10:47:05;20.50;90.10
9808;DHT22;4943;52.550;13.462;2023-05-10T10:49:42;20.50;90.00
9808;DHT22;4943;52.550;13.462;2023-05-10T10:52:15;20.60;90.10
9808;DHT22;4943;52.550;13.462;2023-05-10T10:54:50;20.60;89.80
9808;DHT22;4943;52.550;13.462;2023-05-10T10:57:19;20.70;89.30
9808;DHT22;4943;52.550;13.462;2023-05-10T10:59:48;20.70;88.90
9808;DHT22;4943;52.550;13.462;2023-05-10T11:02:43;20.80;89.20
9808;DHT22;4943;52.550;13.462;2023-05-10T11:05:45;20.90;89.10
9808;DHT22;4943;52.550;13.462;2023-05-10T11:08:19;20.90;89.50
9808;DHT22;4943;52.550;13.462;2023-05-10T11:11:06;21.00;89.80
9808;DHT22;4943;52.550;13.462;2023-05-10T11:13:38;21.00;89.70
9808;DHT22;4943;52.550;13.462;2023-05-10T11:16:17;21.00;89.10
9808;DHT22;4943;52.550;13.462;2023-05-10T11:18:59;21.10;89.10
9808;DHT22;4943;52.550;13.462;2023-05-10T11:21:29;21.20;89.40
9808;DHT22;4943;52.550;13.462;2023-05-10T11:23:58;21.20;89.40
9808;DHT22;4943;52.550;13.462;2023-05-10T11:26:33;21.30;89.50
9808;DHT22;4943;52.550;13.462;2023-05-10T11:29:01;21.30;89.10
9808;DHT22;4943;52.550;13.462;2023-05-10T11:31:31;21.40;88.70
9808;DHT22;4943;52.550;13.462;2023-05-10T11:34:00;21.40;88.80
9808;DHT22;4943;52.550;13.462;2023-05-10T11:36:32;21.50;89.80
9808;DHT22;4943;52.550;13.462;2023-05-10T11:39:00;21.50;89.10
9808;DHT22;4943;52.550;13.462;2023-05-10T11:41:31;21.50;89.10
9808;DHT22;4943;52.550;13.462;2023-05-10T11:43:59;21.60;89.00
9808;DHT22;4943;52.550;13.462;2023-05-10T11:46:28;21.60;89.00
9808;DHT22;4943;52.550;13.462;2023-05-10T11:48:58;21.70;89.00
9808;DHT22;4943;52.550;13.462;2023-05-10T11:51:28;21.70;88.80
9808;DHT22;4943;52.550;13.462;2023-05-10T11:53:57;21.80;88.60
9808;DHT22;4943;52.550;13.462;2023-05-10T11:56:25;21.80;88.30
9808;DHT22;4943;52.550;13.462;2023-05-10T11:58:56;21.80;88.00
9808;DHT22;4943;52.550;13.462;2023-05-10T12:01:26;21.90;88.40
9808;DHT22;4943;52.550;13.462;2023-05-10T12:03:55;22.00;88.70
9808;DHT22;4943;52.550;13.462;2023-05-10T12:06:28;22.00;87.80
9808;DHT22;4943;52.550;13.462;2023-05-10T12:09:06;22.10;87.90
9808;DHT22;4943;52.550;13.462;2023-05-10T12:11:38;22.10;87.90
9808;DHT22;4943;52.550;13.462;2023-05-10T12:14:11;22.10;87.90
9808;DHT22;4943;52.550;13.462;2023-05-10T12:16:39;22.20;88.10
9808;DHT22;4943;52.550;13.462;2023-05-10T12:19:08;22.20;87.50
9808;DHT22;4943;52.550;13.462;2023-05-10T12:21:36;22.30;87.20
9808;DHT22;4943;52.550;13.462;2023-05-10T12:24:05;22.40;87.00
9808;DHT22;4943;52.550;13.462;2023-05-10T12:26:35;22.40;86.50
9808;DHT22;4943;52.550;13.462;2023-05-10T12:29:15;22.50;86.10
9808;DHT22;4943;52.550;13.462;2023-05-10T12:31:51;22.60;85.90
9808;DHT22;4943;52.550;13.462;2023-05-10T12:34:24;22.60;85.50
9808;DHT22;4943;52.550;13.462;2023-05-10T12:36:53;22.70;86.10
9808;DHT22;4943;52.550;13.462;2023-05-10T12:39:21;22.70;85.50
9808;DHT22;4943;52.550;13.462;2023-05-10T12:41:49;22.80;85.20
9808;DHT22;4943;52.550;13.462;2023-05-10T12:44:19;22.80;85.10
9808;DHT22;4943;52.550;13.462;2023-05-10T12:46:47;22.80;84.80
9808;DHT22;4943;52.550;13.462;2023-05-10T12:49:15;22.80;83.90
9808;DHT22;4943;52.550;13.462;2023-05-10T12:51:43;22.90;84.10
9808;DHT22;4943;52.550;13.462;2023-05-10T12:54:11;22.90;84.10
9808;DHT22;4943;52.550;13.462;2023-05-10T12:56:39;23.00;83.90
9808;DHT22;4943;52.550;13.462;2023-05-10T12:59:09;23.00;83.80
9808;DHT22;4943;52.550;13.462;2023-05-10T13:01:38;23.00;83.20
9808;DHT22;4943;52.550;13.462;2023-05-10T13:04:06;23.10;82.80
9808;DHT22;4943;52.550;13.462;2023-05-10T13:06:34;23.10;82.00
9808;DHT22;4943;52.550;13.462;2023-05-10T13:09:06;23.10;82.00
9808;DHT22;4943;52.550;13.462;2023-05-10T13:11:35;23.20;82.40
9808;DHT22;4943;52.550;13.462;2023-05-10T13:14:03;23.20;81.80
9808;DHT22;4943;52.550;13.462;2023-05-10T13:16:31;23.30;81.30
9808;DHT22;4943;52.550;13.462;2023-05-10T13:19:01;23.30;81.40
9808;DHT22;4943;52.550;13.462;2023-05-10T13:21:29;23.30;81.40
9808;DHT22;4943;52.550;13.462;2023-05-10T13:23:57;23.40;81.80
9808;DHT22;4943;52.550;13.462;2023-05-10T13:26:26;23.40;81.60
9808;DHT22;4943;52.550;13.462;2023-05-10T13:28:55;23.50;81.70
9808;DHT22;4943;52.550;13.462;2023-05-10T13:31:23;23.50;81.20
9808;DHT22;4943;52.550;13.462;2023-05-10T13:33:51;23.50;80.90
9808;DHT22;4943;52.550;13.462;2023-05-10T13:36:20;23.50;80.00
9808;DHT22;4943;52.550;13.462;2023-05-10T13:38:49;23.60;81.00
9808;DHT22;4943;52.550;13.462;2023-05-10T13:41:17;23.70;81.00
9808;DHT22;4943;52.550;13.462;2023-05-10T13:43:45;23.70;80.00
9808;DHT22;4943;52.550;13.462;2023-05-10T13:46:15;23.80;80.50
9808;DHT22;4943;52.550;13.462;2023-05-10T13:48:43;23.80;80.50
9808;DHT22;4943;52.550;13.462;2023-05-10T13:51:13;23.90;80.10
9808;DHT22;4943;52.550;13.462;2023-05-10T13:53:42;23.90;79.90
9808;DHT22;4943;52.550;13.462;2023-05-10T13:56:10;23.90;79.00
9808;DHT22;4943;52.550;13.462;2023-05-10T13:58:38;23.90;79.00
9808;DHT22;4943;52.550;13.462;2023-05-10T14:01:06;23.90;79.40
9808;DHT22;4943;52.550;13.462;2023-05-10T14:03:35;23.90;79.20
9808;DHT22;4943;52.550;13.462;2023-05-10T14:06:03;24.00;79.40
9808;DHT22;4943;52.550;13.462;2023-05-10T14:08:31;24.10;79.50
9808;DHT22;4943;52.550;13.462;2023-05-10T14:11:00;24.20;79.30
9808;DHT22;4943;52.550;13.462;2023-05-10T14:13:29;24.30;80.00
9808;DHT22;4943;52.550;13.462;2023-05-10T14:15:57;24.40;79.90
9808;DHT22;4943;52.550;13.462;2023-05-10T14:18:27;24.60;80.10
9808;DHT22;4943;52.550;13.462;2023-05-10T14:20:55;24.70;79.70
9808;DHT22;4943;52.550;13.462;2023-05-10T14:23:23;24.80;79.90
9808;DHT22;4943;52.550;13.462;2023-05-10T14:25:52;24.90;79.70
9808;DHT22;4943;52.550;13.462;2023-05-10T14:28:21;25.00;79.70
9808;DHT22;4943;52.550;13.462;2023-05-10T14:30:51;25.00;79.60
9808;DHT22;4943;52.550;13.462;2023-05-10T14:33:19;25.10;79.00
9808;DHT22;4943;52.550;13.462;2023-05-10T14:35:48;25.20;78.90
9808;DHT22;4943;52.550;13.462;2023-05-10T14:38:16;25.20;78.50
9808;DHT22;4943;52.550;13.462;2023-05-10T14:40:44;25.20;78.60
9808;DHT22;4943;52.550;13.462;2023-05-10T14:43:12;25.20;78.40
9808;DHT22;4943;52.550;13.462;2023-05-10T14:45:41;25.30;78.20
9808;DHT22;4943;52.550;13.462;2023-05-10T14:48:10;25.40;78.20
9808;DHT22;4943;52.550;13.462;2023-05-10T14:50:41;25.50;78.00
9808;DHT22;4943;52.550;13.462;2023-05-10T14:53:09;25.60;76.90
9808;DHT22;4943;52.550;13.462;2023-05-10T14:55:37;25.60;76.00
9808;DHT22;4943;52.550;13.462;2023-05-10T14:58:06;25.60;75.70
9808;DHT22;4943;52.550;13.462;2023-05-10T15:00:34;25.50;76.80
9808;DHT22;4943;52.550;13.462;2023-05-10T15:03:04;25.50;76.50
9808;DHT22;4943;52.550;13.462;2023-05-10T15:05:32;25.40;76.20
9808;DHT22;4943;52.550;13.462;2023-05-10T15:08:00;25.40;76.30
9808;DHT22;4943;52.550;13.462;2023-05-10T15:10:28;25.30;76.00
9808;DHT22;4943;52.550;13.462;2023-05-10T15:13:00;25.40;76.70
9808;DHT22;4943;52.550;13.462;2023-05-10T15:15:28;25.60;76.60
9808;DHT22;4943;52.550;13.462;2023-05-10T15:17:56;25.90;77.10
9808;DHT22;4943;52.550;13.462;2023-05-10T15:20:25;26.20;77.40
9808;DHT22;4943;52.550;13.462;2023-05-10T15:22:53;26.60;76.50
9808;DHT22;4943;52.550;13.462;2023-05-10T15:25:21;26.80;75.50
9808;DHT22;4943;52.550;13.462;2023-05-10T15:27:50;27.00;75.00
9808;DHT22;4943;52.550;13.462;2023-05-10T15:30:18;27.10;73.00
9808;DHT22;4943;52.550;13.462;2023-05-10T15:32:46;27.10;72.10
9808;DHT22;4943;52.550;13.462;2023-05-10T15:35:14;27.10;73.00
9808;DHT22;4943;52.550;13.462;2023-05-10T15:37:47;27.20;73.10
9808;DHT22;4943;52.550;13.462;2023-05-10T15:40:15;27.10;72.30
9808;DHT22;4943;52.550;13.462;2023-05-10T15:42:43;27.00;72.20
9808;DHT22;4943;52.550;13.462;2023-05-10T15:45:11;26.90;72.50
9808;DHT22;4943;52.550;13.462;2023-05-10T15:47:39;26.70;72.00
9808;DHT22;4943;52.550;13.462;2023-05-10T15:50:08;26.70;73.20
9808;DHT22;4943;52.550;13.462;2023-05-10T15:52:36;26.70;74.10
9808;DHT22;4943;52.550;13.462;2023-05-10T15:55:07;26.90;74.00
9808;DHT22;4943;52.550;13.462;2023-05-10T15:57:39;27.00;74.00
9808;DHT22;4943;52.550;13.462;2023-05-10T16:00:08;27.20;74.40
9808;DHT22;4943;52.550;13.462;2023-05-10T16:02:37;27.40;73.50
9808;DHT22;4943;52.550;13.462;2023-05-10T16:05:07;27.40;72.50
9808;DHT22;4943;52.550;13.462;2023-05-10T16:07:35;27.30;72.30
9808;DHT22;4943;52.550;13.462;2023-05-10T16:10:05;27.30;73.00